sensor_id;sensor_type;location;lat;lon;timestamp;temperature;humidity
22442;DHT22;11388;54.456;9.752;2023-08-20T00:01:27;19.20;99.90
22442;DHT22;11388;54.456;9.752;2023-08-20T00:03:54;19.20;99.90
22442;DHT22;11388;54.456;9.752;2023-08-20T00:06:21;19.20;99.90
22442;DHT22;11388;54.456;9.752;2023-08-20T00:08:49;19.10;99.90
22442;DHT22;11388;54.456;9.752;2023-08-20T00:11:18;19.10;99.90
22442;DHT22;11388;54.456;9.752;2023-08-20T00:13:44;19.10;99.90
22442;DHT22;11388;54.456;9.752;2023-08-20T00:16:17;19.00;99.90
22442;DHT22;11388;54.456;9.752;2023-08-20T00:18:46;19.10;99.90
22442;DHT22;11388;54.456;9.752;2023-08-20T00:21:17;19.10;99.90
22442;DHT22;11388;54.456;9.752;2023-08-20T00:23:44;19.10;99.90
22442;DHT22;11388;54.456;9.752;2023-08-20T00:26:10;19.10;99.90
22442;DHT22;11388;54.456;9.752;2023-08-20T00:28:43;19.10;99.90
22442;DHT22;11388;54.456;9.752;2023-08-20T00:31:09;19.10;99.90
22442;DHT22;11388;54.456;9.752;2023-08-20T00:33:38;19.10;99.90
22442;DHT22;11388;54.456;9.752;2023-08-20T00:36:03;19.00;99.90
22442;DHT22;11388;54.456;9.752;2023-08-20T00:38:35;19.00;99.90
22442;DHT22;11388;54.456;9.752;2023-08-20T00:41:01;19.00;99.90
22442;DHT22;11388;54.456;9.752;2023-08-20T00:43:27;18.80;99.90
22442;DHT22;11388;54.456;9.752;2023-08-20T00:45:58;19.00;99.90
22442;DHT22;11388;54.456;9.752;2023-08-20T00:48:26;19.00;99.90
22442;DHT22;11388;54.456;9.752;2023-08-20T00:50:52;18.90;99.90
22442;DHT22;11388;54.456;9.752;2023-08-20T00:53:18;18.80;99.90
22442;DHT22;11388;54.456;9.752;2023-08-20T00:55:47;18.80;99.90
22442;DHT22;11388;54.456;9.752;2023-08-20T00:58:14;18.80;99.90
22442;DHT22;11388;54.456;9.752;2023-08-20T01:00:42;18.90;99.90
22442;DHT22;11388;54.456;9.752;2023-08-20T01:03:22;18.90;99.90
22442;DHT22;11388;54.456;9.752;2023-08-20T01:06:33;19.00;99.90
22442;DHT22;11388;54.456;9.752;2023-08-20T01:09:30;19.00;99.90
22442;DHT22;11388;54.456;9.752;2023-08-20T01:12:01;19.10;99.90
22442;DHT22;11388;54.456;9.752;2023-08-20T01:14:30;19.00;99.90
22442;DHT22;11388;54.456;9.752;2023-08-20T01:17:00;19.10;99.90
22442;DHT22;11388;54.456;9.752;2023-08-20T01:19:28;19.10;99.90
22442;DHT22;11388;54.456;9.752;2023-08-20T01:30:18;19.00;99.90
22442;DHT22;11388;54.456;9.752;2023-08-20T01:32:45;19.00;99.90
22442;DHT22;11388;54.456;9.752;2023-08-20T01:35:12;19.00;99.90
22442;DHT22;11388;54.456;9.752;2023-08-20T01:37:41;19.00;99.90
22442;DHT22;11388;54.456;9.752;2023-08-20T01:40:08;19.00;99.90
22442;DHT22;11388;54.456;9.752;2023-08-20T01:42:36;18.90;99.90
22442;DHT22;11388;54.456;9.752;2023-08-20T01:45:06;19.00;99.90
22442;DHT22;11388;54.456;9.752;2023-08-20T01:47:32;18.80;99.90
22442;DHT22;11388;54.456;9.752;2023-08-20T01:49:58;18.90;99.90
22442;DHT22;11388;54.456;9.752;2023-08-20T01:52:27;19.00;99.90
22442;DHT22;11388;54.456;9.752;2023-08-20T01:55:03;18.90;99.90
22442;DHT22;11388;54.456;9.752;2023-08-20T01:57:33;19.00;99.90
22442;DHT22;11388;54.456;9.752;2023-08-20T02:00:09;19.10;99.90
22442;DHT22;11388;54.456;9.752;2023-08-20T02:02:35;19.20;99.90
22442;DHT22;11388;54.456;9.752;2023-08-20T02:05:06;19.20;99.90
22442;DHT22;11388;54.456;9.752;2023-08-20T02:07:32;19.20;99.90
22442;DHT22;11388;54.456;9.752;2023-08-20T02:10:04;19.20;99.90
22442;DHT22;11388;54.456;9.752;2023-08-20T02:12:39;19.10;99.90
22442;DHT22;11388;54.456;9.752;2023-08-20T02:15:05;19.10;99.90
22442;DHT22;11388;54.456;9.752;2023-08-20T02:17:34;19.00;99.90
22442;DHT22;11388;54.456;9.752;2023-08-20T02:20:01;19.00;99.90
22442;DHT22;11388;54.456;9.752;2023-08-20T02:22:31;19.00;99.90
22442;DHT22;11388;54.456;9.752;2023-08-20T02:24:59;19.00;99.90
22442;DHT22;11388;54.456;9.752;2023-08-20T02:27:28;19.00;99.90
22442;DHT22;11388;54.456;9.752;2023-08-20T02:29:59;18.90;99.90
22442;DHT22;11388;54.456;9.752;2023-08-20T02:32:25;18.90;99.90
22442;DHT22;11388;54.456;9.752;2023-08-20T02:34:51;18.90;99.90
22442;DHT22;11388;54.456;9.752;2023-08-20T02:37:19;18.90;99.90
22442;DHT22;11388;54.456;9.752;2023-08-20T02:39:54;18.90;99.90
22442;DHT22;11388;54.456;9.752;2023-08-20T02:42:22;18.80;99.90
22442;DHT22;11388;54.456;9.752;2023-08-20T02:44:51;18.80;99.90
22442;DHT22;11388;54.456;9.752;2023-08-20T02:47:17;18.70;99.90
22442;DHT22;11388;54.456;9.752;2023-08-20T02:49:43;18.70;99.90
22442;DHT22;11388;54.456;9.752;2023-08-20T02:52:08;18.60;99.90
22442;DHT22;11388;54.456;9.752;2023-08-20T02:54:37;18.70;99.90
22442;DHT22;11388;54.456;9.752;2023-08-20T02:57:08;18.60;99.90
22442;DHT22;11388;54.456;9.752;2023-08-20T02:59:37;18.60;99.90
22442;DHT22;11388;54.456;9.752;2023-08-20T03:02:06;18.60;99.90
22442;DHT22;11388;54.456;9.752;2023-08-20T03:04:34;18.60;99.90
22442;DHT22;11388;54.456;9.752;2023-08-20T03:07:00;18.60;99.90
22442;DHT22;11388;54.456;9.752;2023-08-20T03:09:26;18.60;99.90
22442;DHT22;11388;54.456;9.752;2023-08-20T03:11:57;18.60;99.90
22442;DHT22;11388;54.456;9.752;2023-08-20T03:14:23;18.70;99.90
22442;DHT22;11388;54.456;9.752;2023-08-20T03:16:49;18.70;99.90
22442;DHT22;11388;54.456;9.752;2023-08-20T03:19:15;18.70;99.90
22442;DHT22;11388;54.456;9.752;2023-08-20T03:21:44;18.70;99.90
22442;DHT22;11388;54.456;9.752;2023-08-20T03:24:15;18.70;99.90
22442;DHT22;11388;54.456;9.752;2023-08-20T03:26:41;18.70;99.90
22442;DHT22;11388;54.456;9.752;2023-08-20T03:29:32;18.80;99.90
22442;DHT22;11388;54.456;9.752;2023-08-20T03:32:05;18.80;99.90
22442;DHT22;11388;54.456;9.752;2023-08-20T03:34:31;18.80;99.90
22442;DHT22;11388;54.456;9.752;2023-08-20T03:36:57;18.80;99.90
22442;DHT22;11388;54.456;9.752;2023-08-20T03:39:22;18.80;99.90
22442;DHT22;11388;54.456;9.752;2023-08-20T03:41:57;18.90;99.90
22442;DHT22;11388;54.456;9.752;2023-08-20T03:44:25;18.70;99.90
22442;DHT22;11388;54.456;9.752;2023-08-20T03:46:51;18.60;99.90
22442;DHT22;11388;54.456;9.752;2023-08-20T03:49:20;18.70;99.90
22442;DHT22;11388;54.456;9.752;2023-08-20T03:51:48;18.70;99.90
22442;DHT22;11388;54.456;9.752;2023-08-20T03:54:14;18.70;99.90
22442;DHT22;11388;54.456;9.752;2023-08-20T03:57:04;18.70;99.90
22442;DHT22;11388;54.456;9.752;2023-08-20T03:59:43;18.70;99.90
22442;DHT22;11388;54.456;9.752;2023-08-20T04:02:10;18.80;99.90
22442;DHT22;11388;54.456;9.752;2023-08-20T04:04:36;18.70;99.90
22442;DHT22;11388;54.456;9.752;2023-08-20T04:07:05;18.70;99.90
22442;DHT22;11388;54.456;9.752;2023-08-20T04:09:42;18.70;99.90
22442;DHT22;11388;54.456;9.752;2023-08-20T04:12:08;18.60;99.90
22442;DHT22;11388;54.456;9.752;2023-08-20T04:14:34;18.60;99.90
22442;DHT22;11388;54.456;9.752;2023-08-20T04:17:00;18.60;99.90
22442;DHT22;11388;54.456;9.752;2023-08-20T04:19:26;18.60;99.90
22442;DHT22;11388;54.456;9.752;2023-08-20T04:21:56;18.60;99.90
22442;DHT22;11388;54.456;9.752;2023-08-20T04:24:22;18.50;99.90
22442;DHT22;11388;54.456;9.752;2023-08-20T04:26:50;18.50;99.90
22442;DHT22;11388;54.456;9.752;2023-08-20T04:29:19;18.50;99.90
22442;DHT22;11388;54.456;9.752;2023-08-20T04:31:47;18.50;99.90
22442;DHT22;11388;54.456;9.752;2023-08-20T04:34:13;18.50;99.90
22442;DHT22;11388;54.456;9.752;2023-08-20T04:36:44;18.50;99.90
22442;DHT22;11388;54.456;9.752;2023-08-20T04:39:09;18.50;99.90
22442;DHT22;11388;54.456;9.752;2023-08-20T04:41:38;18.40;99.90
22442;DHT22;11388;54.456;9.752;2023-08-20T04:44:04;18.30;99.90
22442;DHT22;11388;54.456;9.752;2023-08-20T04:46:30;18.20;99.90
22442;DHT22;11388;54.456;9.752;2023-08-20T04:49:14;18.20;99.90
22442;DHT22;11388;54.456;9.752;2023-08-20T04:51:40;18.30;99.90
22442;DHT22;11388;54.456;9.752;2023-08-20T04:54:08;18.30;99.90
22442;DHT22;11388;54.456;9.752;2023-08-20T04:56:34;18.20;99.90
22442;DHT22;11388;54.456;9.752;2023-08-20T04:59:05;18.30;99.90
22442;DHT22;11388;54.456;9.752;2023-08-20T05:01:31;18.30;99.90
22442;DHT22;11388;54.456;9.752;2023-08-20T05:04:00;18.30;99.90
22442;DHT22;11388;54.456;9.752;2023-08-20T05:06:26;18.40;99.90
22442;DHT22;11388;54.456;9.752;2023-08-20T05:08:57;18.50;99.90
22442;DHT22;11388;54.456;9.752;2023-08-20T05:11:32;18.60;99.90
22442;DHT22;11388;54.456;9.752;2023-08-20T05:14:11;18.70;99.90
22442;DHT22;11388;54.456;9.752;2023-08-20T05:16:44;18.70;99.90
22442;DHT22;11388;54.456;9.752;2023-08-20T05:19:35;18.70;99.90
22442;DHT22;11388;54.456;9.752;2023-08-20T05:22:34;18.60;99.90
22442;DHT22;11388;54.456;9.752;2023-08-20T05:25:23;18.70;99.90
22442;DHT22;11388;54.456;9.752;2023-08-20T05:27:51;18.80;99.90
22442;DHT22;11388;54.456;9.752;2023-08-20T05:30:20;18.80;99.90
22442;DHT22;11388;54.456;9.752;2023-08-20T05:32:46;18.70;99.90
22442;DHT22;11388;54.456;9.752;2023-08-20T05:35:14;18.80;99.90
22442;DHT22;11388;54.456;9.752;2023-08-20T05:37:40;18.90;99.90
22442;DHT22;11388;54.456;9.752;2023-08-20T05:40:12;18.80;99.90
22442;DHT22;11388;54.456;9.752;2023-08-20T05:42:45;18.80;99.90
22442;DHT22;11388;54.456;9.752;2023-08-20T05:45:14;18.70;99.90
22442;DHT22;11388;54.456;9.752;2023-08-20T05:47:39;18.60;99.90
22442;DHT22;11388;54.456;9.752;2023-08-20T05:50:06;18.70;99.90
22442;DHT22;11388;54.456;9.752;2023-08-20T05:52:34;18.80;99.90
22442;DHT22;11388;54.456;9.752;2023-08-20T05:54:59;18.90;99.90
22442;DHT22;11388;54.456;9.752;2023-08-20T05:57:25;19.00;99.90
22442;DHT22;11388;54.456;9.752;2023-08-20T05:59:51;19.00;99.90
22442;DHT22;11388;54.456;9.752;2023-08-20T06:02:17;19.00;99.90
22442;DHT22;11388;54.456;9.752;2023-08-20T06:04:44;19.10;99.90
22442;DHT22;11388;54.456;9.752;2023-08-20T06:07:10;19.00;99.90
22442;DHT22;11388;54.456;9.752;2023-08-20T06:09:36;19.00;99.90
22442;DHT22;11388;54.456;9.752;2023-08-20T06:12:01;19.10;99.90
22442;DHT22;11388;54.456;9.752;2023-08-20T06:14:35;19.20;99.90
22442;DHT22;11388;54.456;9.752;2023-08-20T06:17:01;19.30;99.90
22442;DHT22;11388;54.456;9.752;2023-08-20T06:19:27;19.30;99.90
22442;DHT22;11388;54.456;9.752;2023-08-20T06:21:54;19.40;99.90
22442;DHT22;11388;54.456;9.752;2023-08-20T06:24:22;19.50;99.90
22442;DHT22;11388;54.456;9.752;2023-08-20T06:26:50;19.60;99.90
22442;DHT22;11388;54.456;9.752;2023-08-20T06:29:18;19.60;99.90
22442;DHT22;11388;54.456;9.752;2023-08-20T06:31:48;19.80;99.90
22442;DHT22;11388;54.456;9.752;2023-08-20T06:34:16;19.70;99.90
22442;DHT22;11388;54.456;9.752;2023-08-20T06:36:42;19.70;99.90
22442;DHT22;11388;54.456;9.752;2023-08-20T06:39:11;19.70;99.90
22442;DHT22;11388;54.456;9.752;2023-08-20T06:42:01;19.70;99.90
22442;DHT22;11388;54.456;9.752;2023-08-20T06:44:32;19.80;99.90
22442;DHT22;11388;54.456;9.752;2023-08-20T06:47:14;19.70;99.90
22442;DHT22;11388;54.456;9.752;2023-08-20T06:49:43;19.80;99.90
22442;DHT22;11388;54.456;9.752;2023-08-20T06:55:08;20.00;99.90
22442;DHT22;11388;54.456;9.752;2023-08-20T06:57:34;20.10;99.90
22442;DHT22;11388;54.456;9.752;2023-08-20T07:00:00;20.10;99.90
22442;DHT22;11388;54.456;9.752;2023-08-20T07:02:26;20.20;99.90
22442;DHT22;11388;54.456;9.752;2023-08-20T07:04:51;20.20;99.90
22442;DHT22;11388;54.456;9.752;2023-08-20T07:07:17;20.30;99.90
22442;DHT22;11388;54.456;9.752;2023-08-20T07:09:53;20.30;99.90
22442;DHT22;11388;54.456;9.752;2023-08-20T07:12:19;20.40;99.90
22442;DHT22;11388;54.456;9.752;2023-08-20T07:14:45;20.40;99.90
22442;DHT22;11388;54.456;9.752;2023-08-20T07:17:11;20.50;99.90
22442;DHT22;11388;54.456;9.752;2023-08-20T07:19:39;20.40;99.90
22442;DHT22;11388;54.456;9.752;2023-08-20T07:22:05;20.50;99.90
22442;DHT22;11388;54.456;9.752;2023-08-20T07:24:30;20.50;99.90
22442;DHT22;11388;54.456;9.752;2023-08-20T07:27:00;20.60;99.90
22442;DHT22;11388;54.456;9.752;2023-08-20T07:29:27;20.60;99.90
22442;DHT22;11388;54.456;9.752;2023-08-20T07:31:56;20.50;99.90
22442;DHT22;11388;54.456;9.752;2023-08-20T07:34:22;20.40;99.90
22442;DHT22;11388;54.456;9.752;2023-08-20T07:36:48;20.60;99.90
22442;DHT22;11388;54.456;9.752;2023-08-20T07:39:14;20.60;99.90
22442;DHT22;11388;54.456;9.752;2023-08-20T07:41:42;20.70;99.90
22442;DHT22;11388;54.456;9.752;2023-08-20T07:44:22;20.70;99.90
22442;DHT22;11388;54.456;9.752;2023-08-20T07:47:08;20.80;99.90
22442;DHT22;11388;54.456;9.752;2023-08-20T10:24:59;22.90;99.90
22442;DHT22;11388;54.456;9.752;2023-08-20T11:10:30;23.70;99.90
22442;DHT22;11388;54.456;9.752;2023-08-20T11:13:29;23.70;99.90
22442;DHT22;11388;54.456;9.752;2023-08-20T14:47:37;28.50;96.50
22442;DHT22;11388;54.456;9.752;2023-08-20T15:00:54;28.40;98.00
22442;DHT22;11388;54.456;9.752;2023-08-20T15:03:38;28.40;98.70
22442;DHT22;11388;54.456;9.752;2023-08-20T15:06:05;28.70;97.90
22442;DHT22;11388;54.456;9.752;2023-08-20T15:08:31;28.80;97.80
22442;DHT22;11388;54.456;9.752;2023-08-20T15:10:58;29.00;98.50
22442;DHT22;11388;54.456;9.752;2023-08-20T15:13:26;28.90;98.00
22442;DHT22;11388;54.456;9.752;2023-08-20T15:26:17;29.00;99.40
22442;DHT22;11388;54.456;9.752;2023-08-20T15:42:20;26.70;99.90
22442;DHT22;11388;54.456;9.752;2023-08-20T15:55:21;28.70;99.70
22442;DHT22;11388;54.456;9.752;2023-08-20T16:24:43;27.30;99.90
22442;DHT22;11388;54.456;9.752;2023-08-20T16:38:11;27.50;99.90
22442;DHT22;11388;54.456;9.752;2023-08-20T17:08:11;27.50;99.90
22442;DHT22;11388;54.456;9.752;2023-08-20T17:21:08;26.70;99.90
22442;DHT22;11388;54.456;9.752;2023-08-20T17:23:34;26.10;99.90
22442;DHT22;11388;54.456;9.752;2023-08-20T17:36:14;25.60;99.90
22442;DHT22;11388;54.456;9.752;2023-08-20T18:03:24;24.70;99.90
22442;DHT22;11388;54.456;9.752;2023-08-20T18:17:53;24.10;99.90
22442;DHT22;11388;54.456;9.752;2023-08-20T18:20:18;24.00;99.90
22442;DHT22;11388;54.456;9.752;2023-08-20T18:33:32;23.70;99.90
22442;DHT22;11388;54.456;9.752;2023-08-20T18:50:28;22.90;99.90
22442;DHT22;11388;54.456;9.752;2023-08-20T18:52:53;22.90;99.90
22442;DHT22;11388;54.456;9.752;2023-08-20T18:55:19;22.90;99.90
22442;DHT22;11388;54.456;9.752;2023-08-20T18:57:45;22.70;99.90
22442;DHT22;11388;54.456;9.752;2023-08-20T19:10:55;22.50;99.90
22442;DHT22;11388;54.456;9.752;2023-08-20T20:28:40;20.50;99.90
22442;DHT22;11388;54.456;9.752;2023-08-20T20:58:55;20.00;99.90
22442;DHT22;11388;54.456;9.752;2023-08-20T21:01:21;20.00;99.90
22442;DHT22;11388;54.456;9.752;2023-08-20T21:22:31;19.90;99.90
22442;DHT22;11388;54.456;9.752;2023-08-20T21:28:19;19.90;99.90
22442;DHT22;11388;54.456;9.752;2023-08-20T21:31:03;19.90;99.90
22442;DHT22;11388;54.456;9.752;2023-08-20T21:40:48;19.80;99.90
22442;DHT22;11388;54.456;9.752;2023-08-20T21:43:14;19.70;99.90
22442;DHT22;11388;54.456;9.752;2023-08-20T21:49:13;19.60;99.90
22442;DHT22;11388;54.456;9.752;2023-08-20T21:51:55;19.60;99.90
22442;DHT22;11388;54.456;9.752;2023-08-20T21:58:27;19.50;99.90
22442;DHT22;11388;54.456;9.752;2023-08-20T22:00:58;19.50;99.90
22442;DHT22;11388;54.456;9.752;2023-08-20T22:10:12;19.50;99.90
22442;DHT22;11388;54.456;9.752;2023-08-20T22:13:21;19.50;99.90
22442;DHT22;11388;54.456;9.752;2023-08-20T22:16:07;19.40;99.90
22442;DHT22;11388;54.456;9.752;2023-08-20T22:18:46;19.30;99.90
22442;DHT22;11388;54.456;9.752;2023-08-20T22:21:28;19.20;99.90
22442;DHT22;11388;54.456;9.752;2023-08-20T22:23:53;19.20;99.90
22442;DHT22;11388;54.456;9.752;2023-08-20T22:26:25;19.20;99.90
22442;DHT22;11388;54.456;9.752;2023-08-20T22:29:14;19.20;99.90
22442;DHT22;11388;54.456;9.752;2023-08-20T22:48:39;19.10;99.90
22442;DHT22;11388;54.456;9.752;2023-08-20T22:51:05;19.10;99.90
22442;DHT22;11388;54.456;9.752;2023-08-20T22:53:31;19.00;99.90
22442;DHT22;11388;54.456;9.752;2023-08-20T22:55:56;19.00;99.90
22442;DHT22;11388;54.456;9.752;2023-08-20T22:58:42;18.90;99.90
22442;DHT22;11388;54.456;9.752;2023-08-20T23:01:55;18.90;99.90
22442;DHT22;11388;54.456;9.752;2023-08-20T23:11:37;18.90;99.90
22442;DHT22;11388;54.456;9.752;2023-08-20T23:24:06;18.80;99.90
22442;DHT22;11388;54.456;9.752;2023-08-20T23:26:31;18.70;99.90
22442;DHT22;11388;54.456;9.752;2023-08-20T23:28:59;18.70;99.90
22442;DHT22;11388;54.456;9.752;2023-08-20T23:31:44;18.60;99.90
22442;DHT22;11388;54.456;9.752;2023-08-20T23:34:14;18.60;99.90
22442;DHT22;11388;54.456;9.752;2023-08-20T23:37:00;18.50;99.90
22442;DHT22;11388;54.456;9.752;2023-08-20T23:39:29;18.50;99.90
22442;DHT22;11388;54.456;9.752;2023-08-20T23:42:00;18.50;99.90
22442;DHT22;11388;54.456;9.752;2023-08-20T23:44:28;18.40;99.90
22442;DHT22;11388;54.456;9.752;2023-08-20T23:47:02;18.40;99.90
22442;DHT22;11388;54.456;9.752;2023-08-20T23:49:48;18.30;99.90
22442;DHT22;11388;54.456;9.752;2023-08-20T23:55:56;18.30;99.90
